Time;durP1;ratioP1;P1;durP2;ratioP2;P2;SDS_P1;SDS_P2;PMS_P1;PMS_P2;Temp;Humidity;BMP_temperature;BMP_pressure;BME280_temperature;BME280_humidity;BME280_pressure;Samples;Min_cycle;Max_cycle;Signal;HPM_P1;HPM_P2
2021/08/26 00:05:43;;;;;;;1999.90;999.90;;;16.40;99.90;;;;;;5051489;28;20175;-65
2021/08/26 00:06:51;;;;;;;1999.90;999.90;;;16.40;99.90;;;;;;5051103;28;20428;-64
2021/08/26 00:09:17;;;;;;;1999.90;999.90;;;16.40;99.90;;;;;;5051321;28;20820;-65
2021/08/26 00:11:51;;;;;;;1999.90;999.90;;;16.40;99.90;;;;;;5051212;28;20899;-65
2021/08/26 00:14:17;;;;;;;1999.90;999.90;;;16.30;99.90;;;;;;5053814;28;20399;-65
2021/08/26 00:16:43;;;;;;;1999.90;999.90;;;16.30;99.90;;;;;;5054676;28;20452;-65
2021/08/26 00:19:13;;;;;;;1999.90;999.90;;;16.30;99.90;;;;;;5054734;28;20410;-65
2021/08/26 00:21:40;;;;;;;1999.90;999.90;;;16.30;99.90;;;;;;5054714;28;20400;-65
2021/08/26 00:24:06;;;;;;;1999.90;999.90;;;16.20;99.90;;;;;;5054472;28;20413;-65
2021/08/26 00:26:32;;;;;;;1999.90;999.90;;;16.20;99.90;;;;;;5054668;28;21001;-65
2021/08/26 00:29:00;;;;;;;1999.90;999.90;;;16.20;99.90;;;;;;5054522;28;20406;-64
2021/08/26 00:31:25;;;;;;;1999.90;999.90;;;16.10;99.90;;;;;;5054609;28;20424;-65
2021/08/26 00:33:51;;;;;;;1999.90;999.90;;;16.10;99.90;;;;;;5054226;28;20547;-65
2021/08/26 00:36:17;;;;;;;1999.90;999.90;;;16.10;99.90;;;;;;5054324;28;20203;-65
2021/08/26 00:38:44;;;;;;;1999.90;999.90;;;16.10;99.90;;;;;;5054472;28;20192;-65
2021/08/26 00:41:10;;;;;;;1999.90;999.90;;;16.10;99.90;;;;;;5054465;28;20417;-65
2021/08/26 00:43:36;;;;;;;1999.90;999.90;;;16.20;99.90;;;;;;5054224;28;20509;-65
2021/08/26 00:46:01;;;;;;;1999.90;999.90;;;16.20;99.90;;;;;;5054050;28;20929;-65
2021/08/26 00:48:28;;;;;;;1999.90;999.90;;;16.10;99.90;;;;;;5054235;28;20181;-64
2021/08/26 00:50:57;;;;;;;1999.90;999.90;;;16.10;99.90;;;;;;5054209;28;20172;-65
2021/08/26 00:53:24;;;;;;;1999.90;999.90;;;16.10;99.90;;;;;;5054156;28;20504;-65
2021/08/26 00:55:50;;;;;;;1999.90;999.90;;;16.10;99.90;;;;;;5053632;28;20492;-64
2021/08/26 00:58:16;;;;;;;1999.90;999.90;;;16.00;99.90;;;;;;5054048;28;20907;-64
2021/08/26 01:00:48;;;;;;;1999.90;999.90;;;16.00;99.90;;;;;;5053959;28;20516;-64
2021/08/26 01:03:15;;;;;;;1999.90;999.90;;;16.00;99.90;;;;;;5054030;28;20550;-65
2021/08/26 01:05:47;;;;;;;1999.90;999.90;;;16.00;99.90;;;;;;5053540;28;20431;-64
2021/08/26 01:08:22;;;;;;;1999.90;999.90;;;15.90;99.90;;;;;;5053899;28;20402;-65
2021/08/26 01:10:53;;;;;;;1999.90;999.90;;;16.00;99.90;;;;;;5053871;28;20405;-64
2021/08/26 01:13:20;;;;;;;1999.90;999.90;;;16.00;99.90;;;;;;5053708;28;20497;-64
2021/08/26 01:16:07;;;;;;;1999.90;999.90;;;15.90;99.90;;;;;;5053345;28;20477;-65
2021/08/26 01:18:44;;;;;;;1999.90;999.90;;;16.00;99.90;;;;;;5053762;28;20410;-64
2021/08/26 01:21:15;;;;;;;1999.90;999.90;;;16.00;99.90;;;;;;5053649;28;20741;-64
2021/08/26 01:23:43;;;;;;;1999.90;999.90;;;15.90;99.90;;;;;;5053302;28;20833;-64
2021/08/26 01:26:15;;;;;;;1999.90;999.90;;;15.90;99.90;;;;;;5052422;28;20436;-64
2021/08/26 01:28:42;;;;;;;1999.90;999.90;;;15.90;99.90;;;;;;5053631;28;21021;-65
2021/08/26 01:31:08;;;;;;;1999.90;999.90;;;15.90;99.90;;;;;;5053448;28;20436;-65
2021/08/26 01:33:35;;;;;;;1999.90;999.90;;;15.90;99.90;;;;;;5053377;28;20936;-64
2021/08/26 01:36:02;;;;;;;1999.90;999.90;;;15.90;99.90;;;;;;5052987;28;20448;-65
2021/08/26 01:38:28;;;;;;;1999.90;999.90;;;15.90;99.90;;;;;;5053207;28;20475;-64
2021/08/26 01:40:54;;;;;;;1999.90;999.90;;;15.90;99.90;;;;;;5053208;28;20395;-64
2021/08/26 01:43:20;;;;;;;1999.90;999.90;;;15.90;99.90;;;;;;5053042;28;20190;-65
2021/08/26 01:45:47;;;;;;;1999.90;999.90;;;15.90;99.90;;;;;;5052716;28;20434;-64
2021/08/26 01:48:20;;;;;;;1999.90;999.90;;;15.90;99.90;;;;;;5053096;28;20459;-65
2021/08/26 01:50:47;;;;;;;1999.90;999.90;;;15.80;99.90;;;;;;5052951;28;20799;-63
2021/08/26 01:53:16;;;;;;;1999.90;999.90;;;15.80;99.90;;;;;;5053033;28;20451;-64
2021/08/26 01:55:42;;;;;;;1999.90;999.90;;;15.80;99.90;;;;;;5052498;28;20543;-65
2021/08/26 01:58:17;;;;;;;1999.90;999.90;;;15.80;99.90;;;;;;5052862;28;20999;-65
2021/08/26 02:00:44;;;;;;;1999.90;999.90;;;15.70;99.90;;;;;;5052917;28;20961;-65
2021/08/26 02:03:09;;;;;;;1999.90;999.90;;;15.70;99.90;;;;;;5052841;28;20413;-65
2021/08/26 02:05:35;;;;;;;1999.90;999.90;;;15.60;99.90;;;;;;5052351;28;20429;-65
2021/08/26 02:08:01;;;;;;;1999.90;999.90;;;15.60;99.90;;;;;;5052730;28;20178;-65
2021/08/26 02:10:27;;;;;;;1999.90;999.90;;;15.60;99.90;;;;;;5052824;28;20408;-65
2021/08/26 02:12:53;;;;;;;1999.90;999.90;;;15.60;99.90;;;;;;5052554;28;20428;-65
2021/08/26 02:15:19;;;;;;;1999.90;999.90;;;15.60;99.90;;;;;;5052173;28;20206;-65
2021/08/26 02:17:45;;;;;;;1999.90;999.90;;;15.60;99.90;;;;;;5052559;28;20176;-63
2021/08/26 02:20:11;;;;;;;1999.90;999.90;;;15.60;99.90;;;;;;5052434;28;20202;-65
2021/08/26 02:22:37;;;;;;;1999.90;999.90;;;15.60;99.90;;;;;;5052479;28;20891;-65
2021/08/26 02:25:05;;;;;;;1999.90;999.90;;;15.60;99.90;;;;;;5052202;28;20426;-65
2021/08/26 02:27:30;;;;;;;1999.90;999.90;;;15.70;99.90;;;;;;5052566;28;20172;-65
2021/08/26 02:29:56;;;;;;;1999.90;999.90;;;15.70;99.90;;;;;;5052658;28;20407;-65
2021/08/26 02:32:22;;;;;;;1999.90;999.90;;;15.70;99.90;;;;;;5052702;28;20226;-65
2021/08/26 02:34:47;;;;;;;1999.90;999.90;;;15.60;99.90;;;;;;5052117;28;20183;-65
2021/08/26 02:37:13;;;;;;;1999.90;999.90;;;15.60;99.90;;;;;;5052188;28;20615;-65
2021/08/26 02:39:38;;;;;;;1999.90;999.90;;;15.60;99.90;;;;;;5052483;28;20193;-65
2021/08/26 02:42:04;;;;;;;1999.90;999.90;;;15.60;99.90;;;;;;5052206;28;20225;-65
2021/08/26 02:44:30;;;;;;;1999.90;999.90;;;15.50;99.90;;;;;;5052223;28;20539;-65
2021/08/26 02:46:57;;;;;;;1999.90;999.90;;;15.50;99.90;;;;;;5052261;28;20205;-65
2021/08/26 02:49:22;;;;;;;1999.90;999.90;;;15.50;99.90;;;;;;5052249;28;20202;-65
2021/08/26 02:51:48;;;;;;;1999.90;999.90;;;15.50;99.90;;;;;;5052321;28;20418;-65
2021/08/26 02:54:14;;;;;;;1999.90;999.90;;;15.50;99.90;;;;;;5051787;28;20208;-65
2021/08/26 02:56:40;;;;;;;1999.90;999.90;;;15.50;99.90;;;;;;5052109;28;20246;-65
2021/08/26 02:59:05;;;;;;;1999.90;999.90;;;15.50;99.90;;;;;;5052087;28;20206;-65
2021/08/26 03:01:31;;;;;;;1999.90;999.90;;;15.50;99.90;;;;;;5052215;28;20171;-65
2021/08/26 03:03:56;;;;;;;1999.90;999.90;;;15.60;99.90;;;;;;5051857;28;20178;-65
2021/08/26 03:06:22;;;;;;;1999.90;999.90;;;15.50;99.90;;;;;;5052065;28;20191;-65
2021/08/26 03:08:48;;;;;;;1999.90;999.90;;;15.50;99.90;;;;;;5052031;28;20181;-65
2021/08/26 03:11:13;;;;;;;1999.90;999.90;;;15.50;99.90;;;;;;5052050;28;20185;-65
2021/08/26 03:13:39;;;;;;;1999.90;999.90;;;15.50;99.90;;;;;;5052353;28;20167;-64
2021/08/26 03:16:05;;;;;;;1999.90;999.90;;;15.40;99.90;;;;;;5051440;28;20257;-64
2021/08/26 03:18:32;;;;;;;1999.90;999.90;;;15.20;99.90;;;;;;5051731;28;20195;-65
2021/08/26 03:20:57;;;;;;;1999.90;999.90;;;15.20;99.90;;;;;;5051750;28;20407;-64
2021/08/26 03:23:23;;;;;;;1999.90;999.90;;;15.20;99.90;;;;;;5051730;28;20409;-64
2021/08/26 03:25:48;;;;;;;1999.90;999.90;;;15.20;99.90;;;;;;5051340;28;20226;-64
2021/08/26 03:28:17;;;;;;;1999.90;999.90;;;15.20;99.90;;;;;;5051840;28;20201;-65
2021/08/26 03:30:43;;;;;;;1999.90;999.90;;;15.20;99.90;;;;;;5051601;28;20553;-64
2021/08/26 03:33:08;;;;;;;1999.90;999.90;;;15.20;99.90;;;;;;5051613;28;20416;-65
2021/08/26 03:35:34;;;;;;;1999.90;999.90;;;15.20;99.90;;;;;;5051252;28;20208;-64
2021/08/26 03:37:59;;;;;;;1999.90;999.90;;;15.20;99.90;;;;;;5051591;28;20271;-64
2021/08/26 03:40:25;;;;;;;1999.90;999.90;;;15.20;99.90;;;;;;5051531;28;20247;-64
2021/08/26 03:42:51;;;;;;;1999.90;999.90;;;15.20;99.90;;;;;;5051609;28;20648;-64
2021/08/26 03:45:16;;;;;;;1999.90;999.90;;;15.30;99.90;;;;;;5051131;28;20225;-65
2021/08/26 03:47:42;;;;;;;1999.90;999.90;;;15.30;99.90;;;;;;5051915;28;20185;-65
2021/08/26 03:50:08;;;;;;;1999.90;999.90;;;15.40;99.90;;;;;;5055410;28;20192;-65
2021/08/26 03:52:33;;;;;;;1999.90;999.90;;;15.40;99.90;;;;;;5055254;28;20186;-64
2021/08/26 03:54:59;;;;;;;1999.90;999.90;;;15.40;99.90;;;;;;5054882;28;20195;-65
2021/08/26 03:57:24;;;;;;;1999.90;999.90;;;15.50;99.90;;;;;;5055242;28;20164;-65
2021/08/26 03:59:50;;;;;;;1999.90;999.90;;;15.50;99.90;;;;;;5055166;28;20164;-64
2021/08/26 04:02:16;;;;;;;1999.90;999.90;;;15.50;99.90;;;;;;5055106;28;20224;-64
2021/08/26 04:04:41;;;;;;;1999.90;999.90;;;15.50;99.90;;;;;;5054801;28;20168;-64
2021/08/26 04:07:07;;;;;;;1999.90;999.90;;;15.50;99.90;;;;;;5055073;28;20247;-64
2021/08/26 04:09:32;;;;;;;1999.90;999.90;;;15.40;99.90;;;;;;5054971;28;20191;-64
2021/08/26 04:11:58;;;;;;;1999.90;999.90;;;15.40;99.90;;;;;;5054985;28;20165;-64
2021/08/26 04:14:24;;;;;;;1999.90;999.90;;;15.40;99.90;;;;;;5054643;28;20219;-64
2021/08/26 04:16:49;;;;;;;1999.90;999.90;;;15.40;99.90;;;;;;5054732;28;20607;-65
2021/08/26 04:19:15;;;;;;;1999.90;999.90;;;15.40;99.90;;;;;;5054866;28;20196;-64
2021/08/26 04:21:40;;;;;;;1999.90;999.90;;;15.40;99.90;;;;;;5054890;28;20218;-64
2021/08/26 04:24:06;;;;;;;1999.90;999.90;;;15.40;99.90;;;;;;5055356;28;20227;-64
2021/08/26 04:26:32;;;;;;;1999.90;999.90;;;15.40;99.90;;;;;;5054685;28;20566;-64
2021/08/26 04:28:57;;;;;;;1999.90;999.90;;;15.40;99.90;;;;;;5054652;28;20176;-65
2021/08/26 04:31:23;;;;;;;1999.90;999.90;;;15.40;99.90;;;;;;5054580;28;20723;-64
2021/08/26 04:33:49;;;;;;;1999.90;999.90;;;15.40;99.90;;;;;;5054413;28;20173;-66
2021/08/26 04:36:14;;;;;;;1999.90;999.90;;;15.40;99.90;;;;;;5054324;28;20227;-64
2021/08/26 04:38:40;;;;;;;1999.90;999.90;;;15.40;99.90;;;;;;5054433;28;20167;-64
2021/08/26 04:41:06;;;;;;;1999.90;999.90;;;15.30;99.90;;;;;;5054443;28;20178;-64
2021/08/26 04:43:32;;;;;;;1999.90;999.90;;;15.30;99.90;;;;;;5054253;28;20222;-64
2021/08/26 04:45:57;;;;;;;1999.90;999.90;;;15.40;99.90;;;;;;5053973;28;20470;-64
2021/08/26 04:48:23;;;;;;;1999.90;999.90;;;15.40;99.90;;;;;;5054261;28;20624;-65
2021/08/26 04:50:49;;;;;;;1999.90;999.90;;;15.40;99.90;;;;;;5054281;28;20179;-64
2021/08/26 04:53:14;;;;;;;1999.90;999.90;;;15.40;99.90;;;;;;5054115;28;20192;-64
2021/08/26 04:55:40;;;;;;;1999.90;999.90;;;15.40;99.90;;;;;;5053767;28;20227;-65
2021/08/26 04:58:05;;;;;;;1999.90;999.90;;;15.50;99.90;;;;;;5054099;28;20232;-64
2021/08/26 05:00:31;;;;;;;1999.90;999.90;;;15.50;99.90;;;;;;5053841;28;20182;-64
2021/08/26 05:02:57;;;;;;;1999.90;999.90;;;15.50;99.90;;;;;;5054074;28;20621;-64
2021/08/26 05:05:22;;;;;;;1999.90;999.90;;;15.50;99.90;;;;;;5053647;28;20195;-65
2021/08/26 05:07:48;;;;;;;1999.90;999.90;;;15.50;99.90;;;;;;5053913;28;20238;-64
2021/08/26 05:10:14;;;;;;;1999.90;999.90;;;15.50;99.90;;;;;;5053833;28;20172;-64
2021/08/26 05:12:39;;;;;;;1999.90;999.90;;;15.50;99.90;;;;;;5053808;28;20182;-64
2021/08/26 05:15:06;;;;;;;1999.90;999.90;;;15.40;99.90;;;;;;5053173;28;20228;-64
2021/08/26 05:17:31;;;;;;;1999.90;999.90;;;15.40;99.90;;;;;;5053660;28;20671;-65
2021/08/26 05:19:57;;;;;;;1999.90;999.90;;;15.40;99.90;;;;;;5053668;28;20427;-64
2021/08/26 05:22:23;;;;;;;1999.90;999.90;;;15.40;99.90;;;;;;5053648;28;20167;-64
2021/08/26 05:24:50;;;;;;;1999.90;999.90;;;15.50;99.90;;;;;;5053247;28;20168;-64
2021/08/26 05:27:17;;;;;;;1999.90;999.90;;;15.40;99.90;;;;;;5053523;28;20414;-64
2021/08/26 05:29:44;;;;;;;1999.90;999.90;;;15.40;99.90;;;;;;5053445;28;20398;-64
2021/08/26 05:32:10;;;;;;;1999.90;999.90;;;15.40;99.90;;;;;;5053409;28;20417;-64
2021/08/26 05:34:35;;;;;;;1999.90;999.90;;;15.40;99.90;;;;;;5053054;28;20954;-64
2021/08/26 05:37:01;;;;;;;1999.90;999.90;;;15.40;99.90;;;;;;5053354;28;20231;-64
2021/08/26 05:39:26;;;;;;;1999.90;999.90;;;15.30;99.90;;;;;;5053359;28;20171;-64
2021/08/26 05:41:52;;;;;;;1999.90;999.90;;;15.30;99.90;;;;;;5053349;28;20521;-64
2021/08/26 05:44:18;;;;;;;1999.90;999.90;;;15.20;99.90;;;;;;5053095;28;20184;-64
2021/08/26 05:46:44;;;;;;;1999.90;999.90;;;15.20;99.90;;;;;;5053065;28;20200;-65
2021/08/26 05:49:10;;;;;;;1999.90;999.90;;;15.20;99.90;;;;;;5053133;28;20248;-64
2021/08/26 05:51:36;;;;;;;1999.90;999.90;;;15.20;99.90;;;;;;5053082;28;20992;-64
2021/08/26 05:54:02;;;;;;;1999.90;999.90;;;15.20;99.90;;;;;;5052890;28;20171;-65
2021/08/26 05:56:27;;;;;;;1999.90;999.90;;;15.10;99.90;;;;;;5052796;28;20859;-64
2021/08/26 05:58:54;;;;;;;1999.90;999.90;;;15.10;99.90;;;;;;5052934;28;20407;-64
2021/08/26 06:01:20;;;;;;;1999.90;999.90;;;15.20;99.90;;;;;;5052783;28;20573;-64
2021/08/26 06:03:45;;;;;;;1999.90;999.90;;;15.20;99.90;;;;;;5052639;28;20408;-65
2021/08/26 06:06:11;;;;;;;1999.90;999.90;;;15.20;99.90;;;;;;5052665;28;20190;-64
2021/08/26 06:08:37;;;;;;;1999.90;999.90;;;15.10;99.90;;;;;;5052779;28;20177;-65
2021/08/26 06:11:02;;;;;;;1999.90;999.90;;;15.10;99.90;;;;;;5052108;28;20540;-64
2021/08/26 06:13:28;;;;;;;1999.90;999.90;;;15.10;99.90;;;;;;5052557;28;20179;-64
2021/08/26 06:15:53;;;;;;;1999.90;999.90;;;15.10;99.90;;;;;;5052322;28;20204;-64
2021/08/26 06:18:21;;;;;;;1999.90;999.90;;;15.20;99.90;;;;;;5052576;28;20167;-64
2021/08/26 06:20:47;;;;;;;1999.90;999.90;;;15.20;99.90;;;;;;5052517;28;20279;-64
2021/08/26 06:23:12;;;;;;;1999.90;999.90;;;15.20;99.90;;;;;;5052489;28;20432;-64
2021/08/26 06:25:38;;;;;;;1999.90;999.90;;;15.20;99.90;;;;;;5052122;28;20422;-64
2021/08/26 06:28:04;;;;;;;1999.90;999.90;;;15.30;99.90;;;;;;5052424;28;20178;-64
2021/08/26 06:30:29;;;;;;;1999.90;999.90;;;15.40;99.90;;;;;;5052365;28;20206;-65
2021/08/26 06:32:55;;;;;;;1999.90;999.90;;;15.40;99.90;;;;;;5052328;28;20449;-64
2021/08/26 06:35:21;;;;;;;1999.90;999.90;;;15.50;99.90;;;;;;5051784;28;20660;-64
2021/08/26 06:37:46;;;;;;;1999.90;999.90;;;15.50;99.90;;;;;;5052226;28;20182;-65
2021/08/26 06:40:12;;;;;;;1999.90;999.90;;;15.60;99.90;;;;;;5052256;28;20788;-64
2021/08/26 06:42:38;;;;;;;1999.90;999.90;;;15.60;99.90;;;;;;5051977;28;20197;-64
2021/08/26 06:45:04;;;;;;;1999.90;999.90;;;15.60;99.90;;;;;;5051821;28;20506;-64
2021/08/26 06:47:30;;;;;;;1999.90;999.90;;;15.60;99.90;;;;;;5052114;28;20182;-65
2021/08/26 06:49:55;;;;;;;1999.90;999.90;;;15.60;99.90;;;;;;5052151;28;20407;-64
2021/08/26 06:52:21;;;;;;;1999.90;999.90;;;15.60;99.90;;;;;;5051948;28;20575;-64
2021/08/26 06:54:47;;;;;;;1999.90;999.90;;;15.70;99.90;;;;;;5051596;28;20163;-64
2021/08/26 06:57:12;;;;;;;1999.90;999.90;;;15.70;99.90;;;;;;5051918;28;20238;-64
2021/08/26 06:59:38;;;;;;;1999.90;999.90;;;15.80;99.90;;;;;;5051965;28;20175;-64
2021/08/26 07:02:04;;;;;;;1999.90;999.90;;;15.70;99.90;;;;;;5051932;28;20535;-65
2021/08/26 07:04:29;;;;;;;1999.90;999.90;;;15.80;99.90;;;;;;5051617;28;20258;-64
2021/08/26 07:06:55;;;;;;;1999.90;999.90;;;15.80;99.90;;;;;;5051711;28;20300;-64
2021/08/26 07:09:22;;;;;;;1999.90;999.90;;;15.90;99.90;;;;;;5051833;28;20174;-64
2021/08/26 07:11:48;;;;;;;1999.90;999.90;;;16.00;99.90;;;;;;5051759;28;20423;-65
2021/08/26 07:14:14;;;;;;;1999.90;999.90;;;16.00;99.90;;;;;;5051492;28;20936;-64
2021/08/26 07:16:40;;;;;;;1999.90;999.90;;;16.10;99.90;;;;;;5051634;28;20455;-65
2021/08/26 07:19:06;;;;;;;1999.90;999.90;;;16.20;99.90;;;;;;5051815;28;20922;-64
2021/08/26 07:21:32;;;;;;;1999.90;999.90;;;16.30;99.90;;;;;;5051658;28;20166;-64
2021/08/26 07:23:57;;;;;;;1999.90;999.90;;;16.30;99.90;;;;;;5054183;28;20168;-65
2021/08/26 07:26:23;;;;;;;1999.90;999.90;;;16.40;99.90;;;;;;5055724;28;21103;-65
2021/08/26 07:28:51;;;;;;;1999.90;999.90;;;16.50;99.90;;;;;;5055668;28;20170;-65
2021/08/26 07:31:17;;;;;;;1999.90;999.90;;;16.50;99.90;;;;;;5055717;28;20410;-65
2021/08/26 07:33:42;;;;;;;1999.90;999.90;;;16.50;99.90;;;;;;5055604;28;20405;-65
2021/08/26 07:36:08;;;;;;;1999.90;999.90;;;16.60;99.90;;;;;;5055290;28;20228;-65
2021/08/26 07:38:33;;;;;;;1999.90;999.90;;;16.60;99.90;;;;;;5055552;28;20167;-65
2021/08/26 07:40:59;;;;;;;1999.90;999.90;;;16.70;99.90;;;;;;5055576;28;20163;-65
2021/08/26 07:43:30;;;;;;;1999.90;999.90;;;16.80;99.90;;;;;;5055318;28;20267;-64
2021/08/26 07:45:56;;;;;;;1999.90;999.90;;;16.90;99.90;;;;;;5055685;28;20317;-66
2021/08/26 07:48:21;;;;;;;1999.90;999.90;;;16.90;99.90;;;;;;5055861;28;20873;-65
2021/08/26 07:50:48;;;;;;;1999.90;999.90;;;16.70;99.90;;;;;;5055888;28;20222;-65
2021/08/26 07:53:15;;;;;;;1999.90;999.90;;;16.70;99.90;;;;;;5055900;28;20249;-65
2021/08/26 07:55:40;;;;;;;1999.90;999.90;;;16.70;99.90;;;;;;5055629;28;20900;-66
2021/08/26 07:58:06;;;;;;;1999.90;999.90;;;16.80;99.90;;;;;;5055783;28;20410;-65
2021/08/26 08:00:31;;;;;;;1999.90;999.90;;;16.70;99.90;;;;;;5055785;28;20177;-65
2021/08/26 08:02:57;;;;;;;1999.90;999.90;;;16.80;99.90;;;;;;5055726;28;20542;-65
2021/08/26 08:05:23;;;;;;;1999.90;999.90;;;16.80;99.90;;;;;;5055325;28;20719;-65
2021/08/26 08:07:48;;;;;;;1999.90;999.90;;;16.80;99.90;;;;;;5055805;28;20260;-65
2021/08/26 08:10:15;;;;;;;1999.90;999.90;;;16.70;99.90;;;;;;5055327;28;20174;-66
2021/08/26 08:12:41;;;;;;;1999.90;999.90;;;16.70;99.90;;;;;;5055342;28;20183;-65
2021/08/26 08:15:08;;;;;;;1999.90;999.90;;;16.60;99.90;;;;;;5054975;28;20431;-65
2021/08/26 08:17:34;;;;;;;1999.90;999.90;;;16.30;99.90;;;;;;5055148;28;20402;-65
2021/08/26 08:19:59;;;;;;;1999.90;999.90;;;16.00;99.90;;;;;;5055345;28;20887;-65
2021/08/26 08:22:25;;;;;;;1999.90;999.90;;;15.80;99.90;;;;;;5055388;28;20178;-65
2021/08/26 08:24:50;;;;;;;1999.90;999.90;;;15.90;99.90;;;;;;5048375;28;20653;-65
2021/08/26 08:27:16;;;;;;;1999.90;999.90;;;16.00;99.90;;;;;;5053033;28;20170;-66
2021/08/26 08:29:42;;;;;;;1999.90;999.90;;;16.20;99.90;;;;;;5052873;28;20160;-67
2021/08/26 08:32:08;;;;;;;1999.90;999.90;;;16.40;99.90;;;;;;5052637;28;20264;-65
2021/08/26 08:34:33;;;;;;;1999.90;999.90;;;16.60;99.90;;;;;;5051849;28;20200;-66
2021/08/26 08:37:02;;;;;;;1999.90;999.90;;;16.70;99.90;;;;;;5052635;28;20815;-66
2021/08/26 08:39:28;;;;;;;1999.90;999.90;;;16.80;99.90;;;;;;5051158;28;20209;-66
2021/08/26 08:41:53;;;;;;;1999.90;999.90;;;16.80;99.90;;;;;;5052551;28;20491;-66
2021/08/26 08:44:19;;;;;;;1999.90;999.90;;;16.80;99.90;;;;;;5052513;28;20183;-67
2021/08/26 08:46:48;;;;;;;1999.90;999.90;;;16.80;99.90;;;;;;5052480;28;20190;-68
2021/08/26 08:49:17;;;;;;;1999.90;999.90;;;16.90;99.90;;;;;;5052738;28;20736;-66
2021/08/26 08:52:11;;;;;;;1999.90;999.90;;;16.90;99.90;;;;;;5052510;28;20405;-67
2021/08/26 08:54:36;;;;;;;1999.90;999.90;;;17.20;99.90;;;;;;5050571;28;20419;-67
2021/08/26 08:57:03;;;;;;;1999.90;999.90;;;17.60;99.90;;;;;;5052800;28;20442;-66
2021/08/26 08:59:30;;;;;;;1999.90;999.90;;;17.70;99.90;;;;;;5052350;28;20415;-67
2021/08/26 09:01:56;;;;;;;1999.90;999.90;;;17.70;99.90;;;;;;5052267;28;20409;-67
2021/08/26 09:04:23;;;;;;;1999.90;999.90;;;17.80;99.90;;;;;;5052093;28;20402;-66
2021/08/26 09:06:50;;;;;;;1999.90;999.90;;;17.70;99.90;;;;;;5052314;28;20437;-67
2021/08/26 09:09:17;;;;;;;1999.90;999.90;;;17.70;99.90;;;;;;5051824;28;20398;-67
2021/08/26 09:11:58;;;;;;;1999.90;999.90;;;17.70;99.90;;;;;;5052166;28;20413;-69
2021/08/26 09:14:25;;;;;;;1999.90;999.90;;;18.00;99.90;;;;;;5052079;28;20419;-66
2021/08/26 09:16:54;;;;;;;1999.90;999.90;;;18.00;99.90;;;;;;5051704;28;20515;-65
2021/08/26 09:19:32;;;;;;;1999.90;999.90;;;18.10;99.90;;;;;;5051977;28;20448;-65
2021/08/26 09:21:59;;;;;;;1999.90;999.90;;;18.00;99.90;;;;;;5051870;28;20496;-65
2021/08/26 09:24:48;;;;;;;1999.90;999.90;;;17.90;99.90;;;;;;5051271;28;20437;-64
2021/08/26 09:27:35;;;;;;;1999.90;999.90;;;17.80;99.90;;;;;;5051930;28;20425;-65
2021/08/26 09:30:12;;;;;;;1999.90;999.90;;;17.70;99.90;;;;;;5051238;28;20417;-64
2021/08/26 09:32:44;;;;;;;1999.90;999.90;;;17.60;99.90;;;;;;5051703;28;20408;-65
2021/08/26 09:35:18;;;;;;;1999.90;999.90;;;17.60;99.90;;;;;;5051252;28;20426;-65
2021/08/26 09:37:51;;;;;;;1999.90;999.90;;;17.50;99.90;;;;;;5051254;28;20400;-65
2021/08/26 09:40:28;;;;;;;1999.90;999.90;;;17.50;99.90;;;;;;5051544;28;20463;-65
2021/08/26 09:43:05;;;;;;;1999.90;999.90;;;17.60;99.90;;;;;;5051455;28;20786;-65
2021/08/26 09:45:33;;;;;;;1999.90;999.90;;;17.60;99.90;;;;;;5049766;28;20430;-66
2021/08/26 09:48:02;;;;;;;1999.90;999.90;;;17.70;99.90;;;;;;5051748;28;20925;-65
2021/08/26 09:50:54;;;;;;;1999.90;999.90;;;17.80;99.90;;;;;;5051190;28;20422;-64
2021/08/26 09:53:33;;;;;;;1999.90;999.90;;;17.70;99.90;;;;;;5048743;28;20459;-64
2021/08/26 09:56:04;;;;;;;1999.90;999.90;;;17.90;99.90;;;;;;5050964;28;20455;-66
2021/08/26 09:58:35;;;;;;;1999.90;999.90;;;18.10;99.90;;;;;;5051353;28;20417;-66
2021/08/26 10:01:13;;;;;;;1999.90;999.90;;;18.30;99.90;;;;;;5050666;28;20820;-65
2021/08/26 10:03:40;;;;;;;1999.90;999.90;;;18.50;99.90;;;;;;5051095;28;20414;-65
2021/08/26 10:06:06;;;;;;;1999.90;999.90;;;18.60;99.90;;;;;;5050885;28;20484;-63
2021/08/26 10:08:32;;;;;;;1999.90;999.90;;;18.80;99.90;;;;;;5050694;28;21172;-66
2021/08/26 10:11:00;;;;;;;1999.90;999.90;;;18.60;99.90;;;;;;5051027;28;20181;-65
2021/08/26 10:13:27;;;;;;;1999.90;999.90;;;18.30;99.90;;;;;;5050895;28;20407;-65
2021/08/26 10:15:53;;;;;;;1999.90;999.90;;;17.80;99.90;;;;;;5050098;28;20472;-65
2021/08/26 10:18:19;;;;;;;1999.90;999.90;;;17.50;99.90;;;;;;5050860;28;20458;-66
2021/08/26 10:20:45;;;;;;;1999.90;999.90;;;17.30;99.90;;;;;;5050707;28;20410;-65
2021/08/26 10:23:12;;;;;;;1999.90;999.90;;;17.20;99.90;;;;;;5050262;28;20195;-65
2021/08/26 10:25:45;;;;;;;1999.90;999.90;;;17.20;99.90;;;;;;5049960;28;20473;-65
2021/08/26 10:28:12;;;;;;;1999.90;999.90;;;17.10;99.90;;;;;;5050553;28;20449;-68
2021/08/26 10:30:41;;;;;;;1999.90;999.90;;;17.10;99.90;;;;;;5050324;28;20769;-67
2021/08/26 10:33:07;;;;;;;1999.90;999.90;;;17.40;99.90;;;;;;5050717;28;20423;-68
2021/08/26 10:35:34;;;;;;;1999.90;999.90;;;17.60;99.90;;;;;;5050021;28;20464;-67
2021/08/26 10:38:00;;;;;;;1999.90;999.90;;;17.70;99.90;;;;;;5050158;28;20483;-67
2021/08/26 10:40:26;;;;;;;1999.90;999.90;;;17.70;99.90;;;;;;5050616;28;20777;-67
2021/08/26 10:42:53;;;;;;;1999.90;999.90;;;17.70;99.90;;;;;;5050327;28;20433;-68
2021/08/26 10:45:25;;;;;;;1999.90;999.90;;;17.60;99.90;;;;;;5049479;28;20920;-66
2021/08/26 10:47:52;;;;;;;1999.90;999.90;;;17.50;99.90;;;;;;5050205;28;20847;-66
2021/08/26 10:50:22;;;;;;;1999.90;999.90;;;17.50;99.90;;;;;;5050520;28;20896;-67
2021/08/26 10:53:10;;;;;;;1999.90;999.90;;;17.60;99.90;;;;;;5049787;28;20414;-67
2021/08/26 10:55:50;;;;;;;1999.90;999.90;;;17.90;99.90;;;;;;5049724;28;20499;-67
2021/08/26 10:58:24;;;;;;;1999.90;999.90;;;17.90;99.90;;;;;;5049625;28;20421;-68
2021/08/26 11:01:18;;;;;;;1999.90;999.90;;;17.90;99.90;;;;;;5050016;28;20495;-68
2021/08/26 11:03:47;;;;;;;1999.90;999.90;;;18.00;99.90;;;;;;5049468;28;20418;-67
2021/08/26 11:06:19;;;;;;;1999.90;999.90;;;17.90;99.90;;;;;;5049840;28;20465;-68
2021/08/26 11:09:10;;;;;;;1999.90;999.90;;;17.90;99.90;;;;;;5050127;28;20416;-68
2021/08/26 11:11:37;;;;;;;1999.90;999.90;;;17.70;99.90;;;;;;5044490;28;20429;-68
2021/08/26 11:14:03;;;;;;;1999.90;999.90;;;17.60;99.90;;;;;;5049602;28;20429;-68
2021/08/26 11:16:28;;;;;;;1999.90;999.90;;;17.60;99.90;;;;;;5050350;28;20480;-66
2021/08/26 11:18:57;;;;;;;1999.90;999.90;;;17.70;99.90;;;;;;5050330;28;20611;-66
2021/08/26 11:21:41;;;;;;;1999.90;999.90;;;17.80;99.90;;;;;;5049886;28;20172;-66
2021/08/26 11:24:16;;;;;;;1999.90;999.90;;;17.90;99.90;;;;;;5049730;28;20406;-66
2021/08/26 11:26:55;;;;;;;1999.90;999.90;;;18.00;99.90;;;;;;5049785;28;20429;-66
2021/08/26 11:29:20;;;;;;;1999.90;999.90;;;18.00;99.90;;;;;;5049623;28;20417;-65
2021/08/26 11:31:55;;;;;;;1999.90;999.90;;;18.10;99.90;;;;;;5049952;28;20409;-65
2021/08/26 11:34:31;;;;;;;1999.90;999.90;;;18.30;99.90;;;;;;5049468;28;20189;-67
2021/08/26 11:36:56;;;;;;;1999.90;999.90;;;18.40;99.90;;;;;;5049205;28;20503;-66
2021/08/26 11:39:22;;;;;;;1999.90;999.90;;;18.50;99.90;;;;;;5050114;28;20413;-65
2021/08/26 11:41:48;;;;;;;1999.90;999.90;;;18.50;99.90;;;;;;5049705;28;20172;-67
2021/08/26 11:44:15;;;;;;;1999.90;999.90;;;18.50;99.90;;;;;;5049052;28;21003;-66
2021/08/26 11:46:41;;;;;;;1999.90;999.90;;;18.60;99.90;;;;;;5049710;28;20227;-65
2021/08/26 11:49:07;;;;;;;1999.90;999.90;;;18.50;99.90;;;;;;5049846;28;20409;-65
2021/08/26 11:51:33;;;;;;;1999.90;999.90;;;18.50;99.90;;;;;;5049346;28;20411;-66
2021/08/26 11:54:34;;;;;;;1999.90;999.90;;;18.50;99.90;;;;;;5049356;28;20413;-65
2021/08/26 11:56:59;;;;;;;1999.90;999.90;;;18.50;99.90;;;;;;5042175;28;20877;-65
2021/08/26 11:59:29;;;;;;;1999.90;999.90;;;18.50;99.90;;;;;;5049335;28;20406;-66
2021/08/26 12:02:16;;;;;;;1999.90;999.90;;;18.60;99.90;;;;;;5049507;28;20232;-65
2021/08/26 12:04:43;;;;;;;1999.90;999.90;;;18.70;99.90;;;;;;5049072;28;20416;-65